Time;durP1;ratioP1;P1;durP2;ratioP2;P2;SDS_P1;SDS_P2;PMS_P1;PMS_P2;Temp;Humidity;BMP_temperature;BMP_pressure;BME280_temperature;BME280_humidity;BME280_pressure;Samples;Min_cycle;Max_cycle;Signal;HPM_P1;HPM_P2
2022/06/19 00:00:13;;;;;;;12.23;3.60;;;;;;;17.46;100.00;101205.03;10222239;28;20045;-68
2022/06/19 00:05:11;;;;;;;13.45;2.90;;;;;;;17.35;100.00;101203.94;10225231;28;20046;-68
2022/06/19 00:10:09;;;;;;;12.27;2.45;;;;;;;17.34;100.00;101209.84;10218562;28;20088;-68
2022/06/19 00:15:07;;;;;;;13.13;2.72;;;;;;;17.15;100.00;101210.44;10214629;28;20058;-68
2022/06/19 00:20:04;;;;;;;14.60;2.88;;;;;;;17.08;100.00;101208.31;10218678;28;20623;-68
2022/06/19 00:25:01;;;;;;;14.18;2.88;;;;;;;16.99;100.00;101204.88;10222728;28;20096;-68
2022/06/19 00:29:59;;;;;;;10.73;1.92;;;;;;;16.93;100.00;101207.06;10222009;28;20053;-68
2022/06/19 00:34:55;;;;;;;10.45;2.40;;;;;;;16.81;100.00;101185.00;10225694;28;20060;-68
2022/06/19 00:39:52;;;;;;;12.82;3.10;;;;;;;16.73;100.00;101174.88;10222701;28;20568;-68
2022/06/19 00:44:48;;;;;;;17.23;2.92;;;;;;;16.77;100.00;101173.03;10220637;28;20068;-68
2022/06/19 00:49:53;;;;;;;13.10;2.45;;;;;;;16.76;100.00;101163.13;10221327;28;20076;-68
2022/06/19 00:54:59;;;;;;;20.63;3.70;;;;;;;16.61;100.00;101159.94;10219764;28;20080;-68
2022/06/19 01:00:06;;;;;;;12.98;3.38;;;;;;;16.63;100.00;101138.31;10207437;28;20049;-68
2022/06/19 01:05:03;;;;;;;19.75;3.15;;;;;;;16.51;100.00;101124.53;10216612;28;20087;-68
2022/06/19 01:09:59;;;;;;;18.65;3.75;;;;;;;16.52;100.00;101126.13;10217212;28;20115;-68
2022/06/19 01:15:06;;;;;;;19.65;2.97;;;;;;;16.50;100.00;101117.41;10219175;28;20095;-68
2022/06/19 01:20:10;;;;;;;12.40;2.75;;;;;;;16.47;100.00;101120.06;10223030;28;20073;-68
2022/06/19 01:25:13;;;;;;;17.27;3.22;;;;;;;16.45;100.00;101117.63;10222880;28;20199;-68
2022/06/19 01:30:11;;;;;;;16.73;3.38;;;;;;;16.42;100.00;101123.88;10220192;28;20077;-68
2022/06/19 01:35:09;;;;;;;18.48;3.42;;;;;;;16.39;100.00;101113.53;10219762;28;20057;-68
2022/06/19 01:40:13;;;;;;;17.63;4.05;;;;;;;16.31;100.00;101119.97;10218633;28;20052;-68
2022/06/19 01:45:11;;;;;;;15.38;3.00;;;;;;;16.27;100.00;101127.31;10212993;28;20095;-68
2022/06/19 01:50:14;;;;;;;23.92;4.72;;;;;;;16.25;100.00;101126.88;10212711;28;20053;-68
2022/06/19 01:55:15;;;;;;;18.02;3.33;;;;;;;16.20;100.00;101114.94;10217091;28;20425;-68
2022/06/19 02:00:15;;;;;;;16.58;3.55;;;;;;;16.16;100.00;101097.47;10223768;28;20084;-68
2022/06/19 02:05:12;;;;;;;13.02;2.55;;;;;;;16.16;100.00;101102.97;10223536;28;20076;-68
2022/06/19 02:10:08;;;;;;;22.25;3.78;;;;;;;16.15;100.00;101103.31;10218438;28;20129;-68
2022/06/19 02:15:08;;;;;;;17.13;2.75;;;;;;;16.10;100.00;101071.25;10225813;28;20128;-69
2022/06/19 02:20:06;;;;;;;13.00;2.30;;;;;;;16.09;100.00;101061.38;10229978;28;20103;-68
2022/06/19 02:25:03;;;;;;;16.75;2.65;;;;;;;16.09;100.00;101058.63;10241629;28;20042;-68
2022/06/19 02:30:03;;;;;;;15.90;2.95;;;;;;;16.07;100.00;101021.50;10227793;28;20041;-68
2022/06/19 02:35:01;;;;;;;15.15;2.63;;;;;;;16.02;100.00;101019.00;10222067;28;20561;-68
2022/06/19 02:40:15;;;;;;;11.93;2.35;;;;;;;16.03;100.00;100985.53;10224752;28;20470;-68
2022/06/19 02:45:22;;;;;;;14.75;2.70;;;;;;;16.02;100.00;100945.31;10216795;28;20103;-68
2022/06/19 02:50:25;;;;;;;16.92;3.00;;;;;;;15.94;100.00;100918.69;10230519;28;20042;-68
2022/06/19 02:55:22;;;;;;;15.40;2.67;;;;;;;15.96;100.00;100910.88;10222365;28;20053;-68
2022/06/19 03:00:26;;;;;;;18.02;3.47;;;;;;;15.95;100.00;100903.75;10222086;28;20124;-68
2022/06/19 03:05:26;;;;;;;14.43;2.70;;;;;;;15.96;100.00;100899.84;10225539;28;20042;-68
2022/06/19 03:10:23;;;;;;;16.75;2.85;;;;;;;15.89;100.00;100905.16;10226779;28;20568;-68
2022/06/19 03:15:20;;;;;;;17.55;3.63;;;;;;;15.87;100.00;100918.47;10220058;28;20049;-68
2022/06/19 03:20:20;;;;;;;18.00;3.05;;;;;;;15.80;100.00;100943.06;10229214;28;20096;-68
2022/06/19 03:25:17;;;;;;;16.60;3.38;;;;;;;15.72;100.00;100964.91;10226904;28;20045;-68
2022/06/19 03:30:16;;;;;;;17.55;3.15;;;;;;;15.64;100.00;101009.94;10227471;28;20100;-68
2022/06/19 03:35:14;;;;;;;20.85;3.40;;;;;;;15.63;100.00;101030.34;10239219;28;20497;-68
2022/06/19 03:40:11;;;;;;;21.13;3.22;;;;;;;15.66;100.00;101012.31;10224962;28;20501;-68
2022/06/19 03:45:08;;;;;;;15.77;2.85;;;;;;;15.52;100.00;101009.91;10216584;28;20258;-68
2022/06/19 03:50:06;;;;;;;21.38;3.10;;;;;;;15.42;100.00;101018.63;10222085;28;20107;-68
2022/06/19 03:55:03;;;;;;;20.90;3.72;;;;;;;15.56;100.00;101000.59;10216969;28;20050;-68
2022/06/19 04:00:00;;;;;;;23.45;3.45;;;;;;;15.56;100.00;100970.28;10228429;28;20048;-68
2022/06/19 04:04:56;;;;;;;25.75;3.38;;;;;;;15.59;100.00;100924.69;10215932;28;20081;-68
2022/06/19 04:09:58;;;;;;;17.13;3.58;;;;;;;15.72;100.00;100929.06;10224845;28;20045;-68
2022/06/19 04:14:55;;;;;;;17.55;3.40;;;;;;;15.70;100.00;100942.41;10224778;28;20115;-68
2022/06/19 04:19:52;;;;;;;17.20;3.47;;;;;;;15.67;100.00;100917.47;10214522;28;20076;-68
2022/06/19 04:24:48;;;;;;;19.42;3.30;;;;;;;15.64;100.00;100921.72;10218885;28;20115;-68
2022/06/19 04:29:45;;;;;;;16.10;3.15;;;;;;;15.63;100.00;100919.31;10210763;28;20107;-67
2022/06/19 04:34:41;;;;;;;18.10;3.30;;;;;;;15.46;100.00;100903.84;10197289;28;20085;-68
2022/06/19 04:39:38;;;;;;;17.40;3.42;;;;;;;15.53;100.00;100876.50;10194330;28;20050;-68
2022/06/19 04:44:34;;;;;;;18.05;3.55;;;;;;;15.46;100.00;100855.03;10203969;28;20132;-68
2022/06/19 04:49:31;;;;;;;13.10;2.83;;;;;;;15.67;100.00;100824.56;10206633;28;20161;-67
2022/06/19 04:54:27;;;;;;;22.15;4.00;;;;;;;15.82;100.00;100836.00;10210770;28;20080;-68
2022/06/19 04:59:24;;;;;;;17.65;3.55;;;;;;;15.74;100.00;100838.56;10222160;28;20050;-68
2022/06/19 05:04:20;;;;;;;13.40;3.10;;;;;;;15.83;100.00;100834.84;10226304;28;20081;-68
2022/06/19 05:09:18;;;;;;;17.25;3.47;;;;;;;15.89;100.00;100833.47;10220685;28;20038;-68
2022/06/19 05:14:14;;;;;;;15.30;3.08;;;;;;;15.96;100.00;100850.19;10218644;28;20362;-68
2022/06/19 05:19:11;;;;;;;20.83;4.13;;;;;;;15.99;100.00;100927.53;10215214;28;20704;-68
2022/06/19 05:24:08;;;;;;;14.68;2.92;;;;;;;15.98;100.00;100969.22;10224618;28;20088;-68
2022/06/19 05:29:04;;;;;;;16.95;3.25;;;;;;;15.98;100.00;100936.94;10221513;28;20104;-68
2022/06/19 05:34:01;;;;;;;15.35;2.83;;;;;;;16.06;100.00;100949.00;10215724;28;20488;-68
2022/06/19 05:39:04;;;;;;;16.98;3.58;;;;;;;16.12;100.00;100902.66;10226892;28;20168;-68
2022/06/19 05:44:01;;;;;;;15.20;2.75;;;;;;;16.06;100.00;100915.91;10222349;28;20331;-68
2022/06/19 05:48:57;;;;;;;19.45;3.42;;;;;;;16.12;100.00;100878.63;10223230;28;20590;-68
2022/06/19 05:53:56;;;;;;;14.35;3.25;;;;;;;16.12;100.00;100897.94;10230304;28;20148;-68
2022/06/19 05:58:53;;;;;;;16.58;3.35;;;;;;;16.05;100.00;100958.41;10222934;28;20099;-68
2022/06/19 06:03:50;;;;;;;19.40;3.72;;;;;;;16.08;100.00;100979.78;10226565;28;20096;-69
2022/06/19 06:08:48;;;;;;;21.15;4.07;;;;;;;16.10;100.00;100976.66;10224097;28;20073;-69
2022/06/19 06:13:44;;;;;;;22.48;3.15;;;;;;;16.11;100.00;100945.19;10214871;28;20088;-68
2022/06/19 06:18:41;;;;;;;16.90;3.20;;;;;;;16.16;100.00;100925.63;10217697;28;20115;-68
2022/06/19 06:23:38;;;;;;;14.27;3.05;;;;;;;16.25;100.00;100906.19;10229220;28;20087;-68
2022/06/19 06:28:37;;;;;;;14.52;2.30;;;;;;;16.24;100.00;100910.88;10226679;28;20046;-68
2022/06/19 06:33:34;;;;;;;13.23;2.40;;;;;;;16.35;100.00;100878.06;10226525;28;20068;-68
2022/06/19 06:38:30;;;;;;;14.57;2.70;;;;;;;16.38;100.00;100866.31;10228592;28;20146;-68
2022/06/19 06:43:27;;;;;;;15.98;2.85;;;;;;;16.41;100.00;100854.59;10221456;28;20330;-69
2022/06/19 06:48:24;;;;;;;12.15;2.70;;;;;;;16.49;100.00;100861.88;10222899;28;20072;-69
2022/06/19 06:53:20;;;;;;;13.18;2.78;;;;;;;16.62;100.00;100849.59;10212118;28;20041;-69
2022/06/19 06:58:17;;;;;;;13.70;2.80;;;;;;;16.79;100.00;100825.59;10227286;28;20073;-69
2022/06/19 07:03:13;;;;;;;9.50;1.92;;;;;;;16.97;100.00;100814.97;10222702;28;20100;-69
2022/06/19 07:08:10;;;;;;;13.35;2.03;;;;;;;16.95;100.00;100779.44;10223797;28;20509;-68
2022/06/19 07:13:09;;;;;;;8.70;1.63;;;;;;;17.07;100.00;100786.00;10229229;28;20050;-68
2022/06/19 07:18:06;;;;;;;9.45;1.85;;;;;;;17.18;100.00;100787.03;10226909;28;20099;-68
2022/06/19 07:23:04;;;;;;;8.82;1.50;;;;;;;17.38;100.00;100769.31;10225885;28;20517;-68
2022/06/19 07:28:00;;;;;;;8.73;1.60;;;;;;;17.62;100.00;100750.84;10224631;28;20069;-68
2022/06/19 07:32:57;;;;;;;8.70;1.63;;;;;;;17.73;100.00;100735.25;10223882;28;20084;-68
2022/06/19 07:37:53;;;;;;;4.22;1.30;;;;;;;17.90;100.00;100733.22;10220503;28;20049;-68
2022/06/19 07:42:50;;;;;;;7.80;1.52;;;;;;;17.94;100.00;100734.06;10219401;28;20505;-68
2022/06/19 07:53:01;;;;;;;6.63;1.58;;;;;;;18.34;100.00;100736.38;10199203;28;20680;-68
2022/06/19 07:58:00;;;;;;;6.88;1.45;;;;;;;18.63;100.00;100753.41;10203383;28;20056;-68
2022/06/19 08:02:56;;;;;;;6.80;1.50;;;;;;;18.65;100.00;100762.94;10206121;28;20072;-68
2022/06/19 08:07:54;;;;;;;6.82;1.30;;;;;;;18.79;100.00;100761.59;10197149;28;20495;-68
2022/06/19 08:12:51;;;;;;;5.93;1.40;;;;;;;18.97;99.25;100772.97;10212889;28;20096;-68
2022/06/19 08:17:48;;;;;;;4.75;1.15;;;;;;;19.05;97.90;100769.94;10206901;28;20076;-68
2022/06/19 08:22:45;;;;;;;7.03;1.45;;;;;;;19.24;88.68;100793.13;10198942;28;20050;-67
2022/06/19 08:27:43;;;;;;;7.18;1.48;;;;;;;19.36;94.30;100801.22;10201973;28;20112;-68
2022/06/19 08:32:40;;;;;;;6.25;1.38;;;;;;;19.28;83.25;100839.13;10205099;28;20045;-68
2022/06/19 08:37:38;;;;;;;5.97;1.40;;;;;;;19.15;88.73;100846.06;10209443;28;20095;-68
2022/06/19 08:43:09;;;;;;;5.07;1.10;;;;;;;18.97;93.46;100865.19;10200817;28;20049;-68
2022/06/19 08:48:24;;;;;;;5.25;1.40;;;;;;;19.04;86.40;100862.53;10196433;28;20485;-68
2022/06/19 08:53:55;;;;;;;7.00;1.15;;;;;;;19.03;81.90;100871.19;10209794;28;20142;-68
2022/06/19 08:59:07;;;;;;;7.88;1.40;;;;;;;19.02;79.83;100848.25;10201213;28;20549;-68
2022/06/19 09:10:00;;;;;;;7.07;1.30;;;;;;;19.22;79.79;100854.50;10211027;28;20137;-69
2022/06/19 09:15:18;;;;;;;7.17;1.30;;;;;;;19.40;80.57;100857.53;10203681;28;20482;-70
2022/06/19 09:20:23;;;;;;;6.68;1.50;;;;;;;19.52;82.69;100871.16;10212902;28;20133;-69
2022/06/19 09:25:31;;;;;;;7.55;1.60;;;;;;;19.71;82.36;100877.78;10199852;28;20089;-69
2022/06/19 09:30:50;;;;;;;7.47;2.30;;;;;;;19.93;86.16;100868.53;10215016;28;20066;-69
2022/06/19 09:36:06;;;;;;;6.22;2.28;;;;;;;19.87;81.37;100874.81;10211282;28;20057;-69
2022/06/19 09:41:09;;;;;;;6.63;1.98;;;;;;;19.81;83.82;100904.84;10213035;28;20045;-70
2022/06/19 09:46:17;;;;;;;6.63;1.40;;;;;;;19.83;84.72;100913.59;10213469;28;20107;-70
2022/06/19 09:51:36;;;;;;;6.53;1.52;;;;;;;19.63;83.22;100948.94;10205879;28;20064;-70
2022/06/19 09:56:45;;;;;;;8.02;1.52;;;;;;;19.42;89.62;100960.50;10204497;28;20365;-70
2022/06/19 10:01:43;;;;;;;7.50;1.38;;;;;;;19.12;89.56;100947.38;10201041;28;20083;-69
2022/06/19 10:06:56;;;;;;;10.95;2.33;;;;;;;18.86;100.00;100950.09;10192771;28;20049;-69
2022/06/19 10:11:58;;;;;;;10.15;2.30;;;;;;;18.72;100.00;100945.84;10200099;28;20103;-69
2022/06/19 10:17:12;;;;;;;10.05;2.42;;;;;;;18.74;100.00;100964.09;10192714;28;20111;-69
2022/06/19 10:22:36;;;;;;;9.13;2.65;;;;;;;18.65;100.00;100956.81;10185640;28;20156;-69
2022/06/19 10:28:06;;;;;;;10.48;2.33;;;;;;;18.56;100.00;100964.53;10201206;28;20556;-68
2022/06/19 10:33:18;;;;;;;8.55;1.83;;;;;;;18.43;100.00;100963.13;10218227;28;20069;-68
2022/06/19 10:38:40;;;;;;;8.45;2.22;;;;;;;18.26;100.00;100940.25;10212992;28;20132;-68
2022/06/19 10:44:16;;;;;;;7.95;2.30;;;;;;;18.14;100.00;100958.97;10206614;28;20033;-68
2022/06/19 10:49:35;;;;;;;10.82;1.80;;;;;;;18.11;100.00;100988.16;10200520;28;20053;-68
2022/06/19 10:54:50;;;;;;;12.85;1.92;;;;;;;18.20;100.00;100969.38;10206842;28;20050;-68
2022/06/19 10:59:48;;;;;;;9.95;2.53;;;;;;;18.37;100.00;100967.34;10196701;28;20443;-68
2022/06/19 11:04:59;;;;;;;8.20;2.33;;;;;;;18.37;100.00;100939.66;10204723;28;20081;-68
2022/06/19 11:10:04;;;;;;;8.65;2.20;;;;;;;18.29;100.00;100939.50;10207966;28;20081;-68
2022/06/19 11:15:06;;;;;;;11.43;2.47;;;;;;;18.40;100.00;100939.72;10210584;28;20053;-68
2022/06/19 11:20:26;;;;;;;11.35;2.28;;;;;;;18.41;100.00;100957.94;10208187;28;20046;-68
2022/06/19 11:25:30;;;;;;;12.57;2.38;;;;;;;18.51;100.00;100973.16;10209567;28;20052;-68
2022/06/19 11:30:30;;;;;;;13.15;2.50;;;;;;;18.54;100.00;100977.16;10215776;28;21951;-68
2022/06/19 11:35:56;;;;;;;9.88;2.97;;;;;;;18.45;100.00;101016.13;10211413;28;20132;-69
2022/06/19 11:40:53;;;;;;;14.05;3.50;;;;;;;18.35;100.00;101002.88;10209499;28;20046;-68
2022/06/19 11:45:58;;;;;;;10.25;2.45;;;;;;;18.43;100.00;100982.50;10215781;28;20049;-68
2022/06/19 11:50:56;;;;;;;13.73;3.05;;;;;;;18.53;100.00;100976.34;10206675;28;20141;-68
2022/06/19 11:56:23;;;;;;;11.30;2.55;;;;;;;18.49;100.00;100987.34;10355137;27;20619;-67
2022/06/19 12:01:23;;;;;;;12.35;2.67;;;;;;;18.41;100.00;100990.34;10288153;28;20628;-68
2022/06/19 12:06:38;;;;;;;13.60;2.72;;;;;;;18.35;100.00;101030.56;10311646;27;20040;-69
2022/06/19 12:11:55;;;;;;;12.90;2.58;;;;;;;18.00;100.00;101032.19;10370478;27;20117;-68
2022/06/19 12:17:13;;;;;;;12.60;2.90;;;;;;;17.77;100.00;100973.13;10357369;27;20180;-68
2022/06/19 12:22:09;;;;;;;12.90;3.17;;;;;;;17.67;100.00;100869.44;10363714;27;20070;-68
2022/06/19 12:27:11;;;;;;;12.55;3.10;;;;;;;17.53;100.00;100882.94;10364852;27;20102;-69
2022/06/19 12:32:24;;;;;;;16.65;3.13;;;;;;;17.38;100.00;100824.59;10368413;27;20040;-69
2022/06/19 12:37:23;;;;;;;17.80;3.42;;;;;;;17.37;100.00;100883.78;10364543;27;20054;-67
2022/06/19 12:42:46;;;;;;;15.80;3.50;;;;;;;17.09;100.00;100938.38;10362233;27;20058;-67
2022/06/19 12:48:00;;;;;;;15.20;3.30;;;;;;;17.00;100.00;100958.69;10379720;27;20508;-67
2022/06/19 12:53:07;;;;;;;16.65;4.03;;;;;;;16.89;100.00;100985.22;10371066;28;20051;-68
2022/06/19 12:58:31;;;;;;;12.45;3.63;;;;;;;16.80;100.00;101017.72;10378584;27;20113;-70
2022/06/19 13:04:11;;;;;;;14.52;3.38;;;;;;;16.80;100.00;101020.47;10361155;27;20036;-68
2022/06/19 13:09:27;;;;;;;15.05;3.92;;;;;;;16.76;100.00;101036.13;10304550;28;20098;-69
2022/06/19 13:14:55;;;;;;;10.20;3.47;;;;;;;16.92;100.00;101039.75;10331531;28;20040;-69
2022/06/19 13:20:01;;;;;;;14.73;3.67;;;;;;;16.78;100.00;101044.88;10333741;28;20056;-68
2022/06/19 13:25:25;;;;;;;21.00;5.15;;;;;;;16.77;100.00;101071.66;10336168;28;20073;-69
2022/06/19 13:30:33;;;;;;;17.52;4.25;;;;;;;16.78;100.00;101078.00;10324015;28;20488;-68
2022/06/19 13:35:51;;;;;;;13.93;4.07;;;;;;;16.77;100.00;101090.19;10339072;28;20071;-68
2022/06/19 13:40:58;;;;;;;14.07;3.88;;;;;;;16.71;100.00;101091.56;10330160;28;20055;-68
2022/06/19 13:46:31;;;;;;;13.27;3.13;;;;;;;16.52;100.00;101081.97;10338815;27;20077;-68
2022/06/19 13:51:50;;;;;;;14.45;4.03;;;;;;;16.54;100.00;101063.09;10348715;28;20087;-68
2022/06/19 13:56:51;;;;;;;11.27;2.80;;;;;;;16.60;100.00;101056.19;10343552;28;20427;-68
2022/06/19 14:01:50;;;;;;;12.25;3.47;;;;;;;16.75;100.00;101056.59;10339417;28;20044;-69
2022/06/19 14:06:59;;;;;;;12.73;2.63;;;;;;;16.83;100.00;101044.63;10336126;28;20043;-69
2022/06/19 14:12:04;;;;;;;12.20;3.15;;;;;;;16.74;100.00;101038.44;10343115;28;20040;-69
2022/06/19 14:17:31;;;;;;;10.73;3.03;;;;;;;16.74;100.00;101039.22;10346282;28;20133;-69
2022/06/19 14:22:44;;;;;;;9.35;2.67;;;;;;;16.53;100.00;101039.44;10355233;28;20091;-69
2022/06/19 14:28:09;;;;;;;10.75;2.88;;;;;;;16.53;100.00;101069.00;10351537;28;20033;-69
2022/06/19 14:33:45;;;;;;;11.52;3.15;;;;;;;16.50;100.00;101100.88;10337288;28;20037;-69
2022/06/19 14:38:42;;;;;;;10.65;3.83;;;;;;;16.45;100.00;101142.47;10345322;28;20634;-69
2022/06/19 14:43:43;;;;;;;14.90;3.85;;;;;;;16.36;100.00;101155.59;10339109;28;20040;-68
2022/06/19 14:49:16;;;;;;;10.27;3.17;;;;;;;16.35;100.00;101143.75;10354825;28;20050;-69
2022/06/19 14:54:34;;;;;;;9.45;2.97;;;;;;;16.18;100.00;101122.75;10349237;28;20102;-69
2022/06/19 14:59:35;;;;;;;9.93;2.58;;;;;;;16.27;100.00;101132.84;10339808;28;20044;-69
2022/06/19 15:04:35;;;;;;;8.77;2.28;;;;;;;16.35;100.00;101137.44;10352274;28;20044;-69
2022/06/19 15:09:46;;;;;;;9.48;2.83;;;;;;;16.51;100.00;101107.19;10341121;28;20048;-69
2022/06/19 15:14:57;;;;;;;8.30;2.50;;;;;;;16.57;100.00;101112.09;10335055;28;20048;-67
2022/06/19 15:19:54;;;;;;;10.05;2.85;;;;;;;16.68;100.00;101097.81;10331310;28;20043;-68
2022/06/19 15:24:51;;;;;;;7.82;2.00;;;;;;;16.51;100.00;101107.97;10325020;28;20040;-68
2022/06/19 15:29:49;;;;;;;8.45;2.38;;;;;;;16.48;100.00;101118.94;10329598;28;20462;-68
2022/06/19 15:35:20;;;;;;;7.68;2.25;;;;;;;16.28;100.00;101134.47;10337416;28;20089;-67
2022/06/19 15:40:25;;;;;;;6.32;2.22;;;;;;;16.35;100.00;101134.69;10342494;28;20055;-68
2022/06/19 15:45:55;;;;;;;7.90;1.88;;;;;;;16.29;100.00;101149.84;10347579;28;20048;-69
2022/06/19 15:50:55;;;;;;;9.57;2.28;;;;;;;16.41;100.00;101136.88;10337778;28;20036;-68
2022/06/19 15:56:01;;;;;;;9.98;4.13;;;;;;;16.60;100.00;101150.06;10325286;28;20079;-68
2022/06/19 16:01:02;;;;;;;7.88;2.10;;;;;;;16.71;100.00;101144.03;10334021;28;20096;-67
2022/06/19 16:06:11;;;;;;;7.75;2.30;;;;;;;16.80;100.00;101136.44;10328218;28;20040;-69
2022/06/19 16:11:30;;;;;;;6.97;1.85;;;;;;;16.72;100.00;101157.50;10328623;28;20131;-68
2022/06/19 16:16:30;;;;;;;9.50;2.60;;;;;;;16.67;100.00;101154.19;10326899;28;20477;-68
2022/06/19 16:21:30;;;;;;;9.63;2.67;;;;;;;16.56;100.00;101171.22;10329206;28;20040;-68
2022/06/19 16:26:31;;;;;;;8.20;2.30;;;;;;;16.65;100.00;101175.81;10326380;28;20116;-67
2022/06/19 16:31:32;;;;;;;12.10;2.33;;;;;;;16.45;100.00;101169.28;10326792;28;20099;-67
2022/06/19 16:47:06;;;;;;;6.93;1.65;;;;;;;16.35;100.00;101174.13;10324269;28;20053;-67
2022/06/19 16:52:16;;;;;;;5.07;1.77;;;;;;;16.38;100.00;101175.38;10318012;28;20476;-67
2022/06/19 16:57:21;;;;;;;6.97;1.77;;;;;;;16.30;100.00;101179.06;10343253;28;20125;-68
2022/06/19 17:02:22;;;;;;;5.53;1.67;;;;;;;16.29;100.00;101213.31;10343402;28;20032;-67
2022/06/19 17:07:23;;;;;;;6.13;1.80;;;;;;;16.18;100.00;101208.25;10356608;28;20100;-67
2022/06/19 17:12:28;;;;;;;8.30;2.10;;;;;;;16.15;100.00;101206.22;10337750;28;20059;-67
2022/06/19 17:17:30;;;;;;;5.95;1.60;;;;;;;16.17;100.00;101186.53;10315413;28;20068;-68
2022/06/19 17:22:58;;;;;;;11.30;2.47;;;;;;;16.18;100.00;101155.84;10333126;28;20090;-67
2022/06/19 17:28:00;;;;;;;9.82;2.47;;;;;;;16.08;100.00;101134.25;10329381;28;20049;-68
2022/06/19 17:32:59;;;;;;;6.07;1.77;;;;;;;16.06;100.00;101114.50;10341364;28;20491;-68
2022/06/19 17:37:56;;;;;;;7.63;2.42;;;;;;;15.93;100.00;101143.22;10334929;28;20509;-67
2022/06/19 17:42:58;;;;;;;9.50;2.40;;;;;;;15.88;100.00;101212.38;10362795;28;20420;-67
2022/06/19 17:47:56;;;;;;;6.70;2.10;;;;;;;15.95;100.00;101245.72;10362445;28;20510;-67
2022/06/19 17:52:52;;;;;;;11.20;3.72;;;;;;;15.85;100.00;101254.41;10370057;28;20466;-67
2022/06/19 17:58:02;;;;;;;9.20;2.22;;;;;;;15.70;100.00;101242.88;10352141;28;20563;-67
2022/06/19 18:03:04;;;;;;;7.72;2.65;;;;;;;15.74;100.00;101221.75;10335444;28;20051;-67
2022/06/19 18:08:22;;;;;;;8.15;3.15;;;;;;;15.74;100.00;101202.47;10335664;27;20047;-66
2022/06/19 18:13:21;;;;;;;6.88;2.75;;;;;;;15.72;100.00;101190.97;10329767;27;20083;-67
2022/06/19 18:23:34;;;;;;;7.85;2.75;;;;;;;15.67;100.00;101173.81;10326406;28;20119;-66
2022/06/19 18:28:30;;;;;;;7.35;3.35;;;;;;;15.60;100.00;101162.56;10335298;28;20048;-67
2022/06/19 18:33:27;;;;;;;7.88;3.40;;;;;;;15.63;100.00;101192.19;10340294;28;20040;-67
2022/06/19 18:38:24;;;;;;;7.60;3.00;;;;;;;15.51;100.00;101171.69;10338373;28;21028;-67
2022/06/19 18:43:20;;;;;;;7.57;4.10;;;;;;;15.39;100.00;101157.91;10320330;28;20044;-67
2022/06/19 18:48:18;;;;;;;6.70;3.40;;;;;;;15.39;100.00;101163.41;10344119;28;20717;-67
2022/06/19 18:53:25;;;;;;;6.43;3.10;;;;;;;15.34;100.00;101169.94;10334347;28;20097;-67
2022/06/19 18:58:24;;;;;;;7.63;3.80;;;;;;;15.22;100.00;101152.53;10322639;28;20174;-66
2022/06/19 19:03:22;;;;;;;8.43;3.63;;;;;;;15.30;100.00;101180.00;10319352;28;20101;-67
2022/06/19 19:08:24;;;;;;;9.45;3.55;;;;;;;15.31;100.00;101167.84;10323339;28;21298;-67
2022/06/19 19:13:37;;;;;;;6.50;3.25;;;;;;;15.32;100.00;101147.41;10329328;28;20091;-67
2022/06/19 19:18:34;;;;;;;;;;;;;;;15.33;100.00;101153.72;10323896;28;20047;-66
2022/06/19 19:23:30;;;;;;;8.65;4.10;;;;;;;15.26;100.00;101208.56;10312153;28;19974;-66
2022/06/19 19:28:37;;;;;;;6.22;3.70;;;;;;;15.16;100.00;101198.78;10335486;28;20508;-67
2022/06/19 19:33:33;;;;;;;11.27;4.15;;;;;;;15.11;100.00;101229.28;10325008;28;20494;-67
2022/06/19 19:38:33;;;;;;;8.70;3.70;;;;;;;15.14;100.00;101217.59;10332307;28;20086;-66
2022/06/19 19:43:32;;;;;;;8.05;3.38;;;;;;;15.03;100.00;101199.84;10339721;28;20118;-68
2022/06/19 19:48:28;;;;;;;7.53;3.40;;;;;;;15.06;100.00;101248.75;10341140;28;20056;-67
2022/06/19 19:53:28;;;;;;;9.88;3.60;;;;;;;14.94;100.00;101254.97;10314500;28;20048;-67
2022/06/19 19:58:27;;;;;;;8.32;3.85;;;;;;;15.01;100.00;101262.72;10312108;28;20142;-61
2022/06/19 20:03:25;;;;;;;8.45;3.60;;;;;;;14.93;100.00;101262.44;10349039;28;20044;-63
2022/06/19 20:13:37;;;;;;;11.60;3.47;;;;;;;14.85;100.00;101244.06;10334881;28;20048;-61
2022/06/19 20:18:34;;;;;;;8.25;3.30;;;;;;;14.78;100.00;101227.22;10338348;28;20935;-61
2022/06/19 20:23:45;;;;;;;6.97;3.22;;;;;;;14.70;100.00;101239.13;10336725;28;20048;-62
2022/06/19 20:28:43;;;;;;;7.68;3.75;;;;;;;14.62;100.00;101239.97;10333407;27;20139;-62
2022/06/19 20:33:40;;;;;;;7.20;3.65;;;;;;;14.61;100.00;101254.88;10330108;28;20526;-62
2022/06/19 20:38:40;;;;;;;9.10;3.58;;;;;;;14.59;100.00;101257.16;10341877;28;20047;-61
2022/06/19 20:43:37;;;;;;;8.55;3.53;;;;;;;14.53;100.00;101249.06;10345981;27;20094;-61
2022/06/19 20:48:35;;;;;;;9.13;5.13;;;;;;;14.48;100.00;101241.00;10355171;28;20388;-61
2022/06/19 20:53:33;;;;;;;9.70;3.90;;;;;;;14.44;100.00;101215.28;10352321;28;20072;-61
2022/06/19 20:58:30;;;;;;;7.57;4.25;;;;;;;14.43;100.00;101238.41;10357787;28;20507;-64
2022/06/19 21:03:27;;;;;;;9.85;4.55;;;;;;;14.39;100.00;101242.16;10358304;28;20393;-63
2022/06/19 21:08:27;;;;;;;10.82;4.80;;;;;;;14.35;100.00;101247.53;10361059;28;20104;-63
2022/06/19 21:13:27;;;;;;;8.20;3.97;;;;;;;14.37;100.00;101250.75;10351793;28;20109;-63
2022/06/19 21:18:24;;;;;;;8.30;4.32;;;;;;;14.32;100.00;101253.69;10352572;28;20047;-64
2022/06/19 21:23:40;;;;;;;6.95;3.88;;;;;;;14.25;100.00;101253.38;10369959;28;20072;-63
2022/06/19 21:28:38;;;;;;;10.48;5.40;;;;;;;14.26;100.00;101257.75;10366691;28;20086;-64
2022/06/19 21:33:36;;;;;;;8.88;4.25;;;;;;;14.23;100.00;101247.41;10361127;28;20098;-61
2022/06/19 21:38:34;;;;;;;12.60;4.75;;;;;;;14.12;100.00;101281.91;10347732;28;20130;-61
2022/06/19 21:43:31;;;;;;;9.50;4.50;;;;;;;14.09;100.00;101273.16;10345576;28;20082;-61
2022/06/19 21:48:27;;;;;;;7.55;4.07;;;;;;;14.09;100.00;101262.19;10352612;28;20036;-61
2022/06/19 21:53:24;;;;;;;9.65;3.63;;;;;;;14.10;100.00;101296.78;10367917;28;20128;-61
2022/06/19 21:58:21;;;;;;;6.97;2.85;;;;;;;14.18;100.00;101280.56;10361622;28;20083;-60
2022/06/19 22:03:24;;;;;;;10.43;2.95;;;;;;;14.13;100.00;101289.00;10355605;28;20040;-60
2022/06/19 22:08:22;;;;;;;9.57;2.60;;;;;;;14.07;100.00;101296.63;10358518;28;20658;-60
2022/06/19 22:13:20;;;;;;;12.52;2.42;;;;;;;14.02;100.00;101261.88;10352409;28;20654;-60
2022/06/19 22:18:18;;;;;;;7.28;2.13;;;;;;;14.08;100.00;101259.75;10351792;28;20530;-59
2022/06/19 22:23:18;;;;;;;7.75;2.05;;;;;;;14.08;100.00;101260.53;10358229;28;20105;-61
2022/06/19 22:28:22;;;;;;;8.70;1.98;;;;;;;14.12;100.00;101265.41;10354882;28;20075;-63
2022/06/19 22:33:22;;;;;;;7.57;1.90;;;;;;;14.11;100.00;101264.59;10360163;28;20116;-63
2022/06/19 22:38:19;;;;;;;8.98;1.88;;;;;;;14.08;100.00;101260.53;10363012;28;20155;-62
2022/06/19 22:43:17;;;;;;;8.85;2.00;;;;;;;14.14;100.00;101247.44;10356628;28;20127;-62
2022/06/19 22:48:13;;;;;;;6.63;1.92;;;;;;;14.06;100.00;101213.34;10359001;28;20040;-62
2022/06/19 22:53:11;;;;;;;10.05;2.00;;;;;;;14.07;100.00;101200.41;10353053;27;20674;-62
2022/06/19 23:01:40;;;;;;;10.30;1.95;;;;;;;14.01;100.00;101194.25;10336608;28;20070;-62
2022/06/19 23:03:34;;;;;;;8.68;1.77;;;;;;;14.02;100.00;101206.88;10350660;28;20106;-63
2022/06/19 23:08:32;;;;;;;7.95;1.45;;;;;;;14.04;100.00;101203.78;10357500;28;20043;-62
2022/06/19 23:13:28;;;;;;;7.30;1.35;;;;;;;13.99;100.00;101218.53;10353971;28;20101;-61
2022/06/19 23:18:34;;;;;;;7.05;1.65;;;;;;;13.98;100.00;101249.91;10338527;28;20082;-62
2022/06/19 23:23:32;;;;;;;10.43;2.22;;;;;;;13.96;100.00;101268.69;10356275;28;20119;-62